Time;durP1;ratioP1;P1;durP2;ratioP2;P2;SDS_P1;SDS_P2;PMS_P1;PMS_P2;Temp;Humidity;BMP_temperature;BMP_pressure;BME280_temperature;BME280_humidity;BME280_pressure;Samples;Min_cycle;Max_cycle;Signal;HPM_P1;HPM_P2
2021/03/16 00:01:59;;;;;;;2.30;1.08;;;;;;;10.53;36.17;100038.50;5094402;28;20051;-75
2021/03/16 00:05:05;;;;;;;2.10;0.90;;;;;;;10.41;36.61;100050.38;5078616;28;20043;-74
2021/03/16 00:08:10;;;;;;;2.30;0.95;;;;;;;10.33;36.69;100044.84;5074125;28;20478;-76
2021/03/16 00:11:15;;;;;;;2.72;1.17;;;;;;;10.30;36.94;100054.03;5090416;28;20044;-75
2021/03/16 00:14:19;;;;;;;2.15;0.95;;;;;;;10.24;37.27;100048.38;5077293;28;20047;-75
2021/03/16 00:17:23;;;;;;;2.70;1.05;;;;;;;10.17;37.24;100061.50;5061805;28;20047;-77
2021/03/16 00:20:27;;;;;;;3.35;1.17;;;;;;;10.14;37.62;100060.94;5073976;28;20475;-77
2021/03/16 00:23:31;;;;;;;2.75;1.10;;;;;;;10.07;37.89;100057.94;5090371;28;20067;-77
2021/03/16 00:26:35;;;;;;;2.40;1.00;;;;;;;10.04;38.04;100057.34;5082046;28;20497;-77
2021/03/16 00:29:40;;;;;;;5.75;1.20;;;;;;;10.07;38.00;100065.13;5094287;28;20047;-77
2021/03/16 00:32:44;;;;;;;1.83;0.90;;;;;;;10.00;37.86;100072.84;5093076;28;20387;-77
2021/03/16 00:35:49;;;;;;;4.13;1.17;;;;;;;9.98;38.13;100079.34;5076101;28;20055;-79
2021/03/16 00:38:53;;;;;;;2.58;1.05;;;;;;;9.89;38.46;100086.41;5094219;28;20047;-77
2021/03/16 00:41:58;;;;;;;2.05;1.00;;;;;;;9.80;38.69;100095.25;5073711;28;20056;-76
2021/03/16 00:45:05;;;;;;;2.13;1.00;;;;;;;9.69;38.95;100096.19;5061395;28;20047;-74
2021/03/16 00:48:17;;;;;;;2.22;0.90;;;;;;;9.60;39.42;100091.63;5073661;28;20063;-75
2021/03/16 00:51:23;;;;;;;;;;;;;;;9.64;39.41;100102.94;5054238;28;20052;-75
2021/03/16 00:54:28;;;;;;;1.92;0.85;;;;;;;9.72;39.65;100106.66;5045223;28;20359;-74
2021/03/16 00:57:32;;;;;;;1.80;0.90;;;;;;;9.70;39.15;100113.97;5064217;28;20044;-73
2021/03/16 01:00:36;;;;;;;2.38;1.10;;;;;;;9.66;39.46;100115.22;5056990;28;20055;-75
2021/03/16 01:03:41;;;;;;;2.42;1.08;;;;;;;9.62;39.71;100108.44;5073576;28;20391;-75
2021/03/16 01:06:46;;;;;;;2.33;1.10;;;;;;;9.64;40.30;100121.69;5052690;28;20067;-75
2021/03/16 01:09:50;;;;;;;2.30;0.90;;;;;;;9.63;40.00;100123.53;5064853;28;20498;-76
2021/03/16 01:12:54;;;;;;;2.60;1.05;;;;;;;9.70;39.67;100126.53;5065173;28;20067;-77
2021/03/16 01:15:59;;;;;;;2.53;1.00;;;;;;;9.72;39.73;100119.22;5057292;28;20052;-77
2021/03/16 01:19:03;;;;;;;2.55;1.10;;;;;;;9.73;39.88;100116.38;5065799;28;20506;-78
2021/03/16 01:22:08;;;;;;;1.63;0.80;;;;;;;9.70;39.62;100119.31;5076961;28;20055;-77
2021/03/16 01:25:13;;;;;;;2.03;0.80;;;;;;;9.73;39.13;100104.81;5077276;28;20055;-77
2021/03/16 01:28:17;;;;;;;1.90;0.90;;;;;;;9.67;39.54;100116.09;5057036;28;20059;-77
2021/03/16 01:31:21;;;;;;;1.45;0.70;;;;;;;9.68;39.55;100110.56;5057229;28;20380;-76
2021/03/16 01:34:26;;;;;;;3.15;1.00;;;;;;;9.66;39.29;100109.88;5057913;28;20048;-77
2021/03/16 01:37:30;;;;;;;2.78;0.65;;;;;;;9.66;39.25;100114.38;5060816;28;20063;-77
2021/03/16 01:40:37;;;;;;;2.72;1.00;;;;;;;9.67;39.24;100122.28;5056823;28;20056;-78
2021/03/16 01:43:41;;;;;;;1.92;0.90;;;;;;;9.63;39.11;100128.88;5057054;28;20052;-76
2021/03/16 01:46:46;;;;;;;3.50;0.88;;;;;;;9.67;38.85;100134.84;5057832;28;20044;-77
2021/03/16 01:49:56;;;;;;;3.63;1.05;;;;;;;9.59;39.28;100127.47;5069905;28;20059;-77
2021/03/16 01:53:02;;;;;;;1.98;0.80;;;;;;;9.51;39.15;100119.25;5097220;28;20054;-76
2021/03/16 01:56:07;;;;;;;1.42;0.63;;;;;;;9.51;39.07;100131.78;5076591;28;20482;-77
2021/03/16 01:59:30;;;;;;;2.58;0.90;;;;;;;9.49;39.10;100125.72;5076438;28;20047;-76
2021/03/16 02:02:53;;;;;;;2.40;0.93;;;;;;;9.45;38.98;100121.63;5078027;28;20052;-75
2021/03/16 02:06:45;;;;;;;2.22;0.85;;;;;;;9.30;39.05;100123.78;5081380;28;20061;-75
2021/03/16 02:10:42;;;;;;;3.03;0.90;;;;;;;9.15;39.15;100123.28;5096458;28;20051;-75
2021/03/16 02:14:40;;;;;;;1.55;0.70;;;;;;;9.13;39.34;100132.44;5080491;28;20052;-77
2021/03/16 02:18:08;;;;;;;1.23;0.68;;;;;;;9.17;38.95;100128.50;4994769;28;20390;-75
2021/03/16 02:21:36;;;;;;;2.67;1.30;;;;;;;9.18;38.57;100123.00;4994836;28;20065;-76
2021/03/16 02:25:19;;;;;;;1.88;0.80;;;;;;;9.14;38.47;100126.06;4994871;28;20049;-76
2021/03/16 02:29:06;;;;;;;1.42;0.68;;;;;;;9.04;38.69;100131.38;4994250;28;20065;-75
2021/03/16 02:32:30;;;;;;;1.20;0.52;;;;;;;9.01;38.98;100142.31;4988609;28;20157;-75
2021/03/16 02:35:57;;;;;;;1.17;0.60;;;;;;;8.96;38.87;100141.88;5013992;28;20506;-75
2021/03/16 02:39:21;;;;;;;1.20;0.57;;;;;;;8.93;39.00;100139.47;4994529;28;20049;-76
2021/03/16 02:42:44;;;;;;;2.65;0.82;;;;;;;8.96;39.08;100133.84;4994281;28;20536;-76
2021/03/16 02:46:08;;;;;;;7.33;2.80;;;;;;;8.95;38.93;100137.50;4994175;28;20050;-75
2021/03/16 02:49:32;;;;;;;2.50;0.70;;;;;;;8.97;38.70;100137.38;4993904;28;20272;-75
2021/03/16 02:52:56;;;;;;;2.03;0.80;;;;;;;8.99;38.43;100146.97;4998489;28;20057;-77
2021/03/16 02:56:22;;;;;;;1.70;0.60;;;;;;;8.98;38.29;100155.16;5092051;28;20047;-78
2021/03/16 02:59:49;;;;;;;2.35;0.63;;;;;;;8.96;37.82;100151.75;5095727;28;20051;-77
2021/03/16 03:03:14;;;;;;;1.38;0.52;;;;;;;9.02;37.66;100161.94;5075316;28;20056;-76
2021/03/16 03:06:41;;;;;;;1.10;0.60;;;;;;;8.97;37.52;100172.16;5075203;28;20111;-77
2021/03/16 03:10:06;;;;;;;1.70;0.70;;;;;;;8.97;37.73;100175.69;5087836;28;20054;-77
2021/03/16 03:13:30;;;;;;;1.52;0.60;;;;;;;8.89;38.00;100171.97;5095377;28;20051;-76
2021/03/16 03:16:54;;;;;;;1.42;0.60;;;;;;;8.81;38.03;100177.13;5089571;28;20047;-75
2021/03/16 03:20:17;;;;;;;1.63;0.60;;;;;;;8.73;37.99;100179.56;5078863;28;20515;-74
2021/03/16 03:23:47;;;;;;;1.55;0.60;;;;;;;8.64;37.56;100188.38;5074805;28;20052;-75
2021/03/16 03:27:03;;;;;;;2.30;0.90;;;;;;;8.49;37.70;100188.63;5069156;28;20399;-74
2021/03/16 03:30:27;;;;;;;3.15;0.77;;;;;;;8.39;37.99;100192.22;5094695;28;20059;-76
2021/03/16 03:33:50;;;;;;;2.92;0.55;;;;;;;8.33;38.57;100190.03;5094919;28;20047;-76
2021/03/16 03:37:16;;;;;;;1.58;0.70;;;;;;;8.22;38.81;100193.53;5095126;28;20047;-77
2021/03/16 03:40:41;;;;;;;1.27;0.50;;;;;;;8.14;38.92;100198.66;5081695;28;20051;-77
2021/03/16 03:44:08;;;;;;;2.10;0.60;;;;;;;8.21;38.66;100199.84;5074507;28;20410;-77
2021/03/16 03:47:31;;;;;;;1.30;0.50;;;;;;;8.22;38.98;100204.22;5091482;28;20047;-79
2021/03/16 03:50:57;;;;;;;1.98;0.70;;;;;;;8.17;38.77;100200.22;5073818;28;20391;-78
2021/03/16 03:54:20;;;;;;;1.95;0.60;;;;;;;8.13;38.57;100196.94;5064803;28;20043;-77
2021/03/16 03:57:44;;;;;;;3.55;0.68;;;;;;;8.09;38.02;100195.50;5074360;28;20047;-78
2021/03/16 04:01:07;;;;;;;1.55;0.63;;;;;;;8.04;37.96;100197.69;5074403;28;20047;-77
2021/03/16 04:04:30;;;;;;;1.40;0.57;;;;;;;7.99;37.67;100199.88;5091511;28;20502;-79
2021/03/16 04:07:54;;;;;;;2.72;0.95;;;;;;;7.88;38.00;100198.03;5078170;28;20044;-77
2021/03/16 04:11:19;;;;;;;2.05;0.90;;;;;;;7.84;37.63;100195.75;5076204;28;20051;-78
2021/03/16 04:14:42;;;;;;;2.00;0.82;;;;;;;7.76;37.79;100200.84;5084603;28;20047;-77
2021/03/16 04:18:05;;;;;;;1.50;0.57;;;;;;;7.81;37.39;100209.34;5082802;28;20063;-80
2021/03/16 04:21:28;;;;;;;1.38;0.60;;;;;;;7.75;37.53;100212.50;5066155;28;20048;-78
2021/03/16 04:24:55;;;;;;;1.58;0.60;;;;;;;7.73;37.29;100214.41;5074038;28;20043;-76
2021/03/16 04:28:17;;;;;;;2.80;0.60;;;;;;;7.70;37.15;100215.50;5064397;28;20158;-76
2021/03/16 04:31:40;;;;;;;1.27;0.57;;;;;;;7.65;37.29;100212.34;5073819;28;20047;-78
2021/03/16 04:35:03;;;;;;;1.20;0.50;;;;;;;7.61;37.02;100213.56;5076648;28;20404;-79
2021/03/16 04:38:26;;;;;;;2.53;0.57;;;;;;;7.67;37.45;100222.94;5073865;28;20055;-76
2021/03/16 04:41:49;;;;;;;1.20;0.50;;;;;;;7.65;37.18;100224.88;5080510;28;20051;-76
2021/03/16 04:45:13;;;;;;;1.35;0.50;;;;;;;7.64;37.77;100224.03;5065449;28;20047;-75
2021/03/16 04:48:35;;;;;;;2.40;0.50;;;;;;;7.67;37.76;100236.28;5065409;28;20047;-76
2021/03/16 04:51:58;;;;;;;1.98;0.55;;;;;;;7.57;37.74;100228.16;5077022;28;20052;-73
2021/03/16 04:55:21;;;;;;;1.42;0.50;;;;;;;7.56;37.99;100228.25;5067037;28;20048;-74
2021/03/16 04:58:44;;;;;;;2.65;0.57;;;;;;;7.49;37.96;100237.69;5098147;28;20055;-77
2021/03/16 05:02:07;;;;;;;2.72;0.60;;;;;;;7.51;38.13;100235.75;5079488;28;20089;-75
2021/03/16 05:05:30;;;;;;;1.38;0.50;;;;;;;7.55;37.54;100240.78;5085835;28;20389;-76
2021/03/16 05:08:53;;;;;;;1.40;0.70;;;;;;;7.64;37.12;100231.19;5082197;28;20044;-76
2021/03/16 05:12:16;;;;;;;2.00;0.63;;;;;;;7.65;36.80;100243.56;5091840;28;20059;-75
2021/03/16 05:15:39;;;;;;;3.75;0.70;;;;;;;7.61;37.03;100255.44;5097511;28;20043;-73
2021/03/16 05:19:02;;;;;;;1.35;0.50;;;;;;;7.65;36.67;100251.59;5097488;28;20055;-78
2021/03/16 05:22:25;;;;;;;1.20;0.40;;;;;;;7.67;36.26;100258.53;5097686;28;20055;-75
2021/03/16 05:25:47;;;;;;;2.50;0.65;;;;;;;7.63;35.83;100251.69;5097384;28;20502;-76
2021/03/16 05:29:10;;;;;;;1.10;0.50;;;;;;;7.69;36.07;100261.06;5097188;28;20051;-76
2021/03/16 05:32:33;;;;;;;2.17;0.70;;;;;;;7.71;35.92;100265.31;5080265;28;20059;-77
2021/03/16 05:35:56;;;;;;;2.90;0.50;;;;;;;7.77;35.64;100272.00;5081021;28;20047;-73
2021/03/16 05:39:19;;;;;;;1.25;0.50;;;;;;;7.88;35.38;100280.88;5076881;28;20048;-76
2021/03/16 05:42:42;;;;;;;1.37;0.70;;;;;;;7.83;34.96;100283.06;5076850;28;20071;-74
2021/03/16 05:46:05;;;;;;;3.75;1.15;;;;;;;7.93;34.71;100280.53;5081258;28;20043;-74
2021/03/16 05:49:30;;;;;;;2.65;0.73;;;;;;;8.04;34.55;100295.72;5097126;28;20051;-75
2021/03/16 05:52:55;;;;;;;1.85;0.60;;;;;;;8.06;34.18;100297.31;5096434;28;20059;-75
2021/03/16 05:56:18;;;;;;;3.05;0.70;;;;;;;8.07;34.40;100304.38;5095082;28;20047;-76
2021/03/16 05:59:41;;;;;;;3.15;0.70;;;;;;;8.13;34.27;100311.91;5086952;28;20050;-74
2021/03/16 06:03:04;;;;;;;2.88;0.90;;;;;;;8.26;34.07;100304.66;5076374;28;20051;-80
2021/03/16 06:06:27;;;;;;;97.80;65.78;;;;;;;8.34;33.81;100312.06;5092696;28;20039;-78
2021/03/16 06:09:49;;;;;;;29.77;16.58;;;;;;;8.32;33.88;100312.16;5082709;28;20052;-80
2021/03/16 06:13:15;;;;;;;3.55;1.20;;;;;;;8.27;33.90;100311.69;5076029;28;20059;-77
2021/03/16 06:16:39;;;;;;;2.63;0.90;;;;;;;8.13;34.44;100322.59;5082356;28;20039;-77
2021/03/16 06:20:03;;;;;;;3.63;0.80;;;;;;;8.06;34.96;100325.84;5081106;28;20055;-77
2021/03/16 06:23:31;;;;;;;3.10;0.70;;;;;;;7.99;35.40;100332.66;5086598;28;20063;-78
2021/03/16 06:26:53;;;;;;;5.60;0.98;;;;;;;7.87;35.14;100316.59;5076119;28;20044;-80
2021/03/16 06:30:25;;;;;;;8.00;1.00;;;;;;;7.91;35.51;100330.56;5063170;28;20047;-79
2021/03/16 06:33:48;;;;;;;3.28;0.77;;;;;;;8.13;36.16;100332.44;5075751;28;20043;-78
2021/03/16 06:37:11;;;;;;;7.78;2.15;;;;;;;8.31;35.74;100350.59;5078376;28;20557;-82
2021/03/16 06:40:35;;;;;;;6.30;0.90;;;;;;;8.49;35.16;100351.81;5092384;28;20040;-76
2021/03/16 06:44:04;;;;;;;2.25;1.00;;;;;;;8.62;34.96;100354.34;5075579;28;20043;-75
2021/03/16 06:47:26;;;;;;;6.13;1.25;;;;;;;8.77;34.13;100363.84;5077149;28;20047;-80
2021/03/16 06:50:51;;;;;;;4.80;2.55;;;;;;;9.27;33.61;100361.56;5095039;28;20047;-79
2021/03/16 06:54:16;;;;;;;1.77;0.60;;;;;;;9.72;32.53;100363.97;5063251;28;20482;-84
2021/03/16 06:57:38;;;;;;;3.15;0.60;;;;;;;10.92;30.67;100364.22;5075378;28;20047;-84
2021/03/16 07:01:06;;;;;;;2.80;0.70;;;;;;;10.57;31.80;100367.34;5078777;28;20059;-86
2021/03/16 07:04:29;;;;;;;4.22;0.70;;;;;;;11.16;30.78;100371.94;5082068;28;20047;-81
2021/03/16 07:07:53;;;;;;;5.55;1.23;;;;;;;11.30;31.12;100382.28;5080055;28;20078;-78
2021/03/16 07:11:19;;;;;;;2.67;0.70;;;;;;;12.10;30.09;100375.69;5095896;28;20383;-77
2021/03/16 07:14:42;;;;;;;3.80;0.57;;;;;;;12.49;29.33;100381.00;5095142;28;20363;-81
2021/03/16 07:18:07;;;;;;;1.20;0.50;;;;;;;12.85;29.00;100390.91;5095052;28;20063;-79
2021/03/16 07:21:30;;;;;;;;;;;;;;;14.11;27.73;100395.34;5087805;28;20502;-81
2021/03/16 07:25:05;;;;;;;9.43;1.48;;;;;;;17.33;23.02;100396.00;5075479;28;20291;-75
2021/03/16 07:28:33;;;;;;;2.17;0.60;;;;;;;17.07;22.89;100391.88;5073979;28;20422;-75
2021/03/16 07:31:56;;;;;;;4.88;0.75;;;;;;;18.19;21.96;100401.25;5085143;28;20477;-79
2021/03/16 07:35:18;;;;;;;14.90;0.88;;;;;;;19.29;20.04;100406.75;5088318;28;20079;-74
2021/03/16 07:38:42;;;;;;;6.50;1.75;;;;;;;19.48;19.84;100410.78;5093743;28;20047;-77
2021/03/16 07:42:07;;;;;;;16.40;9.02;;;;;;;20.91;18.35;100399.59;5085920;28;20529;-76
2021/03/16 07:45:30;;;;;;;3.92;0.77;;;;;;;22.44;17.05;100414.50;5073393;28;20055;-75
2021/03/16 07:48:53;;;;;;;7.78;0.70;;;;;;;26.71;14.00;100407.25;5081668;28;20039;-75
2021/03/16 07:52:20;;;;;;;2.57;0.47;;;;;;;28.83;12.40;100406.97;5073826;28;20506;-75
2021/03/16 07:55:42;;;;;;;1.77;0.60;;;;;;;31.01;11.22;100409.25;5064637;28;20115;-75
2021/03/16 07:59:06;;;;;;;1.65;0.60;;;;;;;35.81;9.20;100415.22;5073630;28;20048;-75
2021/03/16 08:02:33;;;;;;;3.45;0.57;;;;;;;37.03;9.04;100417.84;5069735;28;20043;-73
2021/03/16 08:05:57;;;;;;;2.47;0.60;;;;;;;37.24;8.85;100429.47;5088803;28;20048;-73
2021/03/16 08:09:23;;;;;;;3.30;0.80;;;;;;;37.54;8.28;100428.91;5073001;28;20035;-74
2021/03/16 08:12:45;;;;;;;4.25;0.80;;;;;;;38.78;7.67;100434.00;5073382;28;20043;-73
2021/03/16 08:16:12;;;;;;;;;;;;;;;39.28;7.60;100446.75;5078652;28;20509;-76
2021/03/16 08:19:37;;;;;;;5.88;0.70;;;;;;;40.81;7.19;100441.81;5092836;28;19916;-76
2021/03/16 08:23:09;;;;;;;6.82;0.90;;;;;;;43.02;6.63;100449.41;5093598;28;20104;-76
2021/03/16 08:26:32;;;;;;;4.05;0.70;;;;;;;41.17;7.63;100450.69;5089823;28;20404;-77
2021/03/16 08:29:55;;;;;;;9.82;0.90;;;;;;;40.91;6.52;100466.84;5081886;28;20063;-75
2021/03/16 08:33:19;;;;;;;7.40;0.52;;;;;;;40.95;6.95;100467.81;5074852;28;20495;-76
2021/03/16 08:36:43;;;;;;;6.70;0.80;;;;;;;42.14;7.36;100488.31;5093298;28;20055;-75
2021/03/16 08:40:07;;;;;;;4.25;0.60;;;;;;;42.77;6.41;100481.53;5093205;28;20482;-74
2021/03/16 08:43:30;;;;;;;3.78;0.55;;;;;;;43.92;6.42;100492.63;5073168;28;20056;-75
2021/03/16 08:46:56;;;;;;;3.42;0.65;;;;;;;42.93;6.53;100493.91;5078542;28;20059;-75
2021/03/16 08:50:22;;;;;;;6.60;0.90;;;;;;;42.69;6.23;100491.75;5082539;28;20514;-74
2021/03/16 08:53:45;;;;;;;1.80;0.60;;;;;;;42.74;6.41;100499.19;5080568;28;20055;-75
2021/03/16 08:57:08;;;;;;;1.55;0.50;;;;;;;43.43;6.81;100512.69;5073060;28;20063;-74
2021/03/16 09:00:31;;;;;;;9.57;1.02;;;;;;;42.85;6.41;100508.06;5073042;28;20044;-75
2021/03/16 09:03:53;;;;;;;29.02;2.05;;;;;;;42.44;6.31;100508.88;5079293;28;20403;-76
2021/03/16 09:07:24;;;;;;;19.88;1.40;;;;;;;42.36;6.44;100502.13;5093262;28;20051;-76
2021/03/16 09:10:48;;;;;;;10.60;1.38;;;;;;;41.73;6.54;100505.94;5092731;28;20058;-74
2021/03/16 09:14:19;;;;;;;10.48;1.00;;;;;;;39.65;7.07;100508.09;5073092;28;20048;-73
2021/03/16 09:17:44;;;;;;;2.22;0.55;;;;;;;39.18;7.49;100503.19;5093087;28;20047;-74
2021/03/16 09:21:06;;;;;;;1.60;0.55;;;;;;;38.70;7.76;100505.75;5073136;28;20506;-73
2021/03/16 09:24:30;;;;;;;4.68;0.70;;;;;;;36.82;7.97;100515.28;5081497;28;20054;-76
2021/03/16 09:28:02;;;;;;;2.92;0.75;;;;;;;34.63;8.84;100513.50;5076553;28;20063;-74
2021/03/16 09:31:26;;;;;;;4.18;0.70;;;;;;;29.49;10.54;100519.44;5094257;28;20056;-74
2021/03/16 09:34:49;;;;;;;5.68;1.00;;;;;;;25.29;13.05;100528.03;5080232;28;20047;-73
2021/03/16 09:38:11;;;;;;;4.85;0.65;;;;;;;22.25;14.80;100525.56;5095816;28;20047;-74
2021/03/16 09:41:19;;;;;;;4.93;0.60;;;;;;;20.49;16.64;100522.47;5096899;28;20533;-74
2021/03/16 09:44:45;;;;;;;4.40;0.77;;;;;;;19.03;17.74;100536.16;5083220;28;20051;-74
2021/03/16 09:47:51;;;;;;;4.03;0.70;;;;;;;18.51;19.54;100536.94;5071973;28;20047;-74
2021/03/16 09:50:58;;;;;;;4.75;0.80;;;;;;;18.53;18.58;100525.88;5096009;28;20055;-74
2021/03/16 09:54:02;;;;;;;4.80;0.88;;;;;;;18.42;19.50;100526.28;5082774;28;20060;-74
2021/03/16 09:57:14;;;;;;;3.45;0.80;;;;;;;18.01;18.66;100523.81;5072946;28;20047;-74
2021/03/16 10:00:21;;;;;;;3.50;0.52;;;;;;;17.50;19.41;100524.34;5075603;28;20047;-74
2021/03/16 10:03:25;;;;;;;3.25;0.85;;;;;;;17.48;19.63;100527.22;5085399;28;20047;-76
2021/03/16 10:06:35;;;;;;;2.08;0.68;;;;;;;17.50;19.99;100518.94;5095716;28;20047;-74
2021/03/16 10:09:40;;;;;;;2.47;0.68;;;;;;;17.72;20.20;100520.06;5095729;28;20067;-76
2021/03/16 10:12:59;;;;;;;7.43;1.00;;;;;;;17.34;21.86;100505.41;5095768;28;20039;-78
2021/03/16 10:16:11;;;;;;;4.60;0.80;;;;;;;17.26;23.47;100502.69;5067055;28;20059;-78
2021/03/16 10:19:21;;;;;;;4.50;1.10;;;;;;;17.42;22.72;100499.94;5095106;28;20406;-79
2021/03/16 10:22:27;;;;;;;5.78;0.63;;;;;;;17.20;20.83;100506.97;5094498;28;20051;-79
2021/03/16 10:25:34;;;;;;;2.30;0.75;;;;;;;16.90;22.35;100503.13;5082096;28;20506;-78
2021/03/16 10:28:42;;;;;;;3.38;0.57;;;;;;;17.12;20.60;100493.44;5084656;28;20055;-74
2021/03/16 10:31:46;;;;;;;3.03;0.52;;;;;;;16.79;20.25;100484.50;5095272;28;20055;-75
2021/03/16 10:34:51;;;;;;;5.13;0.50;;;;;;;16.93;18.43;100477.53;5094266;28;20067;-73
2021/03/16 10:37:56;;;;;;;8.20;0.75;;;;;;;16.69;19.33;100497.38;5094776;28;20043;-75
2021/03/16 10:41:02;;;;;;;4.30;0.70;;;;;;;16.46;19.33;100490.94;5082403;28;20047;-76
2021/03/16 10:44:20;;;;;;;4.93;0.57;;;;;;;16.49;18.50;100489.75;5094458;28;20054;-73
2021/03/16 10:47:25;;;;;;;7.63;0.60;;;;;;;16.56;18.14;100490.78;5094903;28;20051;-75
2021/03/16 10:50:29;;;;;;;5.80;0.63;;;;;;;16.64;19.01;100488.09;5094652;28;20063;-75
2021/03/16 10:53:34;;;;;;;5.57;0.60;;;;;;;16.63;19.80;100486.38;5094830;28;20051;-76
2021/03/16 10:56:38;;;;;;;2.10;0.47;;;;;;;16.52;18.45;100484.84;5095047;28;20062;-75
2021/03/16 10:59:44;;;;;;;1.00;0.40;;;;;;;16.54;18.50;100485.53;5094581;28;20055;-72
2021/03/16 11:02:48;;;;;;;2.65;0.70;;;;;;;16.55;18.34;100470.97;5094858;28;20055;-74
2021/03/16 11:05:52;;;;;;;6.43;0.52;;;;;;;16.32;17.58;100477.22;5095145;28;20387;-72
2021/03/16 11:08:57;;;;;;;5.13;0.65;;;;;;;16.35;18.18;100482.25;5094676;28;20047;-74
2021/03/16 11:12:01;;;;;;;1.75;0.50;;;;;;;16.44;17.37;100475.84;5094832;28;20047;-73
2021/03/16 11:15:06;;;;;;;3.08;0.35;;;;;;;16.35;17.35;100468.72;5081678;28;20055;-72
2021/03/16 11:18:10;;;;;;;6.95;0.60;;;;;;;16.41;17.67;100481.59;5093811;28;20051;-72
2021/03/16 11:21:15;;;;;;;6.72;0.60;;;;;;;16.38;18.74;100479.22;5082105;28;20051;-72
2021/03/16 11:24:19;;;;;;;1.70;0.40;;;;;;;16.54;17.87;100473.84;5093687;28;20407;-73
2021/03/16 11:27:24;;;;;;;2.65;0.50;;;;;;;16.57;17.87;100474.34;5094485;28;20059;-75
2021/03/16 11:30:31;;;;;;;1.27;0.45;;;;;;;16.31;16.24;100476.34;5091881;28;20090;-74
2021/03/16 11:33:35;;;;;;;3.55;0.50;;;;;;;16.27;17.65;100475.84;5093985;28;20051;-74
2021/03/16 11:36:59;;;;;;;3.20;0.40;;;;;;;16.20;16.57;100474.81;5094059;28;20043;-75
2021/03/16 11:40:22;;;;;;;1.48;0.40;;;;;;;16.07;16.73;100471.75;5080247;28;20043;-74
2021/03/16 11:43:45;;;;;;;2.27;0.50;;;;;;;15.96;17.55;100472.06;5093454;28;20097;-74
2021/03/16 11:47:28;;;;;;;3.22;0.50;;;;;;;15.99;17.53;100460.06;5084331;28;20055;-73
2021/03/16 11:50:50;;;;;;;1.83;0.40;;;;;;;16.11;17.94;100467.69;5093671;28;20043;-74
2021/03/16 11:54:13;;;;;;;3.22;0.70;;;;;;;16.27;17.99;100466.84;5083831;28;20047;-76
2021/03/16 11:57:36;;;;;;;4.63;0.50;;;;;;;16.30;17.70;100463.81;5061160;28;20047;-76
2021/03/16 12:00:59;;;;;;;1.33;0.40;;;;;;;16.29;16.98;100462.13;5082107;28;20051;-75
2021/03/16 12:04:23;;;;;;;3.55;0.50;;;;;;;16.19;17.91;100459.59;5093124;28;20059;-75
2021/03/16 12:07:45;;;;;;;2.88;0.73;;;;;;;16.24;16.74;100449.06;5084252;28;20071;-74
2021/03/16 12:11:08;;;;;;;2.05;0.50;;;;;;;16.28;17.52;100439.63;5093091;28;20051;-74
2021/03/16 12:14:31;;;;;;;3.20;0.50;;;;;;;16.14;16.68;100440.28;5080478;28;20396;-74
2021/03/16 12:17:54;;;;;;;2.45;0.55;;;;;;;16.06;17.09;100439.44;5092726;28;20062;-75
2021/03/16 12:21:17;;;;;;;2.85;0.70;;;;;;;15.89;18.35;100435.84;5092946;28;20043;-76
2021/03/16 12:24:39;;;;;;;2.13;0.57;;;;;;;15.98;18.33;100434.00;5080369;28;20150;-73
2021/03/16 12:28:02;;;;;;;1.90;0.50;;;;;;;16.10;18.41;100427.22;5080247;28;20055;-76
2021/03/16 12:31:27;;;;;;;3.72;0.57;;;;;;;16.18;19.12;100429.94;5090834;28;20047;-77
2021/03/16 12:34:51;;;;;;;1.92;0.50;;;;;;;16.31;18.30;100426.75;5089519;28;20047;-77
2021/03/16 12:38:13;;;;;;;;;;;;;;;16.31;18.35;100416.75;5090581;28;20055;-76
2021/03/16 12:41:35;;;;;;;4.57;0.70;;;;;;;16.36;17.78;100421.66;5092825;28;20387;-75
2021/03/16 12:44:59;;;;;;;2.17;0.43;;;;;;;16.33;17.35;100420.13;5091554;28;20059;-77
2021/03/16 12:48:21;;;;;;;1.35;0.50;;;;;;;16.35;17.91;100417.25;5063498;28;20055;-77
2021/03/16 12:51:44;;;;;;;3.35;0.47;;;;;;;16.34;17.54;100415.56;5092485;28;20059;-76
2021/03/16 12:55:08;;;;;;;2.88;0.60;;;;;;;16.35;17.80;100411.81;5092384;28;20051;-78
2021/03/16 12:58:31;;;;;;;4.10;0.50;;;;;;;16.39;17.29;100415.91;5092485;28;20055;-75
2021/03/16 13:01:53;;;;;;;1.15;0.40;;;;;;;16.21;17.17;100414.22;5092906;28;20431;-76
2021/03/16 13:05:16;;;;;;;0.98;0.40;;;;;;;16.18;16.85;100419.97;5094444;28;20454;-76
2021/03/16 13:08:39;;;;;;;1.98;0.50;;;;;;;16.20;18.59;100409.81;5083320;28;20055;-76
2021/03/16 13:12:02;;;;;;;1.17;0.40;;;;;;;16.23;18.55;100404.06;5096801;28;20422;-74
2021/03/16 13:15:24;;;;;;;3.08;0.40;;;;;;;16.19;17.78;100416.25;5096942;28;20074;-75
2021/03/16 13:18:47;;;;;;;4.18;0.50;;;;;;;16.14;18.25;100409.66;5096679;28;20055;-75
2021/03/16 13:22:11;;;;;;;1.13;0.50;;;;;;;16.11;18.36;100407.28;5089918;28;20522;-73
2021/03/16 13:25:35;;;;;;;2.92;0.47;;;;;;;16.10;17.78;100408.28;5090172;28;20445;-75
2021/03/16 13:28:57;;;;;;;7.13;0.88;;;;;;;16.26;18.51;100409.16;5075907;28;20044;-74
2021/03/16 13:32:20;;;;;;;3.92;0.75;;;;;;;16.36;19.07;100408.13;5082931;28;20039;-73
2021/03/16 13:35:42;;;;;;;3.00;0.55;;;;;;;16.42;16.83;100405.56;5095989;28;20039;-73
2021/03/16 13:39:05;;;;;;;2.92;0.40;;;;;;;16.38;16.50;100403.38;5084447;28;20051;-72
2021/03/16 13:42:27;;;;;;;1.92;0.40;;;;;;;16.37;17.13;100405.22;5094412;28;20059;-72
2021/03/16 13:45:50;;;;;;;4.93;0.60;;;;;;;16.37;16.67;100397.09;5082146;28;20506;-74
2021/03/16 13:49:13;;;;;;;1.63;0.50;;;;;;;16.22;15.65;100399.66;5086458;28;20042;-78
2021/03/16 13:52:36;;;;;;;4.13;0.60;;;;;;;16.16;15.69;100407.63;5095865;28;20071;-75
2021/03/16 13:55:59;;;;;;;3.22;0.60;;;;;;;16.06;16.08;100407.78;5075259;28;20047;-77
2021/03/16 13:59:22;;;;;;;1.70;0.43;;;;;;;16.11;15.38;100402.72;5087001;28;20066;-76
2021/03/16 14:02:45;;;;;;;9.32;1.10;;;;;;;16.06;16.96;100404.22;5095281;28;20051;-76
2021/03/16 14:06:08;;;;;;;6.68;0.70;;;;;;;16.20;16.18;100396.28;5083148;28;20051;-73
2021/03/16 14:09:31;;;;;;;3.15;0.50;;;;;;;16.23;16.29;100412.19;5091793;28;20052;-74
2021/03/16 14:12:55;;;;;;;3.03;0.50;;;;;;;16.24;16.21;100397.59;5094063;28;20051;-77
2021/03/16 14:16:18;;;;;;;2.70;0.50;;;;;;;16.20;16.14;100396.28;5093951;28;20059;-74
2021/03/16 14:19:40;;;;;;;2.88;0.70;;;;;;;16.31;17.37;100405.06;5095197;28;20059;-81
2021/03/16 14:23:05;;;;;;;1.20;0.50;;;;;;;16.36;18.11;100400.84;5095619;28;20403;-79
2021/03/16 14:26:28;;;;;;;1.60;0.50;;;;;;;16.38;18.26;100401.50;5071709;28;20075;-80
2021/03/16 14:29:51;;;;;;;1.30;0.40;;;;;;;16.41;17.96;100403.03;5078504;28;20062;-78
2021/03/16 14:33:15;;;;;;;1.88;0.68;;;;;;;16.29;16.77;100389.81;5075157;28;20372;-79
2021/03/16 14:36:38;;;;;;;2.80;0.60;;;;;;;16.25;18.12;100396.59;5063332;28;20051;-74
2021/03/16 14:40:02;;;;;;;6.90;0.65;;;;;;;16.25;17.06;100391.19;5083135;28;20055;-75
2021/03/16 14:43:26;;;;;;;0.90;0.40;;;;;;;16.26;16.63;100398.31;5072840;28;20059;-81
2021/03/16 14:46:50;;;;;;;1.58;0.40;;;;;;;16.22;16.79;100393.38;5073307;28;20051;-76
2021/03/16 14:50:13;;;;;;;2.95;0.63;;;;;;;16.18;15.68;100386.63;5084587;28;20072;-76
2021/03/16 14:53:37;;;;;;;3.07;0.60;;;;;;;16.06;15.33;100402.38;5074433;28;20051;-76
2021/03/16 14:57:00;;;;;;;2.38;0.52;;;;;;;16.04;16.39;100400.84;5085005;28;20036;-81
2021/03/16 15:00:23;;;;;;;5.18;0.77;;;;;;;16.02;15.64;100395.56;5094782;28;20047;-77
2021/03/16 15:03:46;;;;;;;1.60;0.50;;;;;;;16.02;15.72;100395.56;5094265;28;20055;-77
2021/03/16 15:07:10;;;;;;;3.08;0.43;;;;;;;15.96;15.64;100398.13;5094291;28;20525;-74
2021/03/16 15:10:35;;;;;;;2.15;0.60;;;;;;;16.01;15.67;100390.34;5085079;28;20122;-78
2021/03/16 15:13:57;;;;;;;0.90;0.38;;;;;;;15.93;16.56;100391.19;5094427;28;20059;-74
2021/03/16 15:17:20;;;;;;;4.28;0.50;;;;;;;15.97;16.53;100391.69;5093666;28;20044;-76
2021/03/16 15:20:43;;;;;;;6.70;0.73;;;;;;;16.05;16.38;100397.94;5093990;28;20047;-78
2021/03/16 15:24:08;;;;;;;1.53;0.40;;;;;;;16.03;16.54;100394.56;5093922;28;20047;-77
2021/03/16 15:27:30;;;;;;;;;;;;;;;16.00;16.37;100388.63;5081566;28;20273;-74
2021/03/16 15:30:52;;;;;;;5.38;0.55;;;;;;;16.01;16.38;100388.50;5094247;28;19915;-78
2021/03/16 15:34:15;;;;;;;11.27;0.95;;;;;;;16.04;16.85;100385.44;5093918;28;20071;-76